sensor_id;sensor_type;location;lat;lon;timestamp;P1;durP1;ratioP1;P2;durP2;ratioP2
68821;SDS011;55834;50.870;4.606;2023-02-18T00:02:21;8.67;;;5.37;;
68821;SDS011;55834;50.870;4.606;2023-02-18T00:04:46;8.03;;;5.27;;
68821;SDS011;55834;50.870;4.606;2023-02-18T00:07:11;9.13;;;6.30;;
68821;SDS011;55834;50.870;4.606;2023-02-18T00:09:37;13.03;;;6.97;;
68821;SDS011;55834;50.870;4.606;2023-02-18T00:12:02;10.00;;;5.85;;
68821;SDS011;55834;50.870;4.606;2023-02-18T00:14:28;8.93;;;5.55;;
68821;SDS011;55834;50.870;4.606;2023-02-18T00:16:53;8.53;;;5.90;;
68821;SDS011;55834;50.870;4.606;2023-02-18T00:19:19;8.53;;;5.37;;
68821;SDS011;55834;50.870;4.606;2023-02-18T00:21:44;8.27;;;5.00;;
68821;SDS011;55834;50.870;4.606;2023-02-18T00:24:11;7.22;;;4.60;;
68821;SDS011;55834;50.870;4.606;2023-02-18T00:26:41;9.10;;;6.15;;
68821;SDS011;55834;50.870;4.606;2023-02-18T00:29:07;8.30;;;5.22;;
68821;SDS011;55834;50.870;4.606;2023-02-18T00:31:33;6.47;;;4.07;;
68821;SDS011;55834;50.870;4.606;2023-02-18T00:36:25;6.68;;;4.13;;
68821;SDS011;55834;50.870;4.606;2023-02-18T00:38:52;6.82;;;4.72;;
68821;SDS011;55834;50.870;4.606;2023-02-18T00:41:23;6.78;;;4.18;;
68821;SDS011;55834;50.870;4.606;2023-02-18T00:43:49;5.93;;;4.35;;
68821;SDS011;55834;50.870;4.606;2023-02-18T00:46:15;6.68;;;4.80;;
68821;SDS011;55834;50.870;4.606;2023-02-18T00:48:40;6.22;;;4.72;;
68821;SDS011;55834;50.870;4.606;2023-02-18T00:51:06;4.80;;;3.23;;
68821;SDS011;55834;50.870;4.606;2023-02-18T00:53:32;6.35;;;3.53;;
68821;SDS011;55834;50.870;4.606;2023-02-18T00:55:58;4.90;;;3.55;;
68821;SDS011;55834;50.870;4.606;2023-02-18T00:58:24;5.32;;;3.65;;
68821;SDS011;55834;50.870;4.606;2023-02-18T01:00:49;5.97;;;3.40;;
68821;SDS011;55834;50.870;4.606;2023-02-18T01:03:15;4.15;;;2.97;;
68821;SDS011;55834;50.870;4.606;2023-02-18T01:05:40;4.75;;;3.47;;
68821;SDS011;55834;50.870;4.606;2023-02-18T01:08:07;4.63;;;2.90;;
68821;SDS011;55834;50.870;4.606;2023-02-18T01:12:59;5.90;;;3.22;;
68821;SDS011;55834;50.870;4.606;2023-02-18T01:15:25;4.00;;;3.10;;
68821;SDS011;55834;50.870;4.606;2023-02-18T01:17:51;4.22;;;3.22;;
68821;SDS011;55834;50.870;4.606;2023-02-18T01:20:16;3.08;;;2.60;;
68821;SDS011;55834;50.870;4.606;2023-02-18T01:22:42;2.42;;;2.22;;
68821;SDS011;55834;50.870;4.606;2023-02-18T01:25:09;3.40;;;2.17;;
68821;SDS011;55834;50.870;4.606;2023-02-18T01:27:35;3.88;;;2.08;;
68821;SDS011;55834;50.870;4.606;2023-02-18T01:30:02;4.03;;;1.85;;
68821;SDS011;55834;50.870;4.606;2023-02-18T01:32:29;3.22;;;2.28;;
68821;SDS011;55834;50.870;4.606;2023-02-18T01:34:54;2.50;;;1.90;;
68821;SDS011;55834;50.870;4.606;2023-02-18T01:37:19;2.97;;;2.17;;
68821;SDS011;55834;50.870;4.606;2023-02-18T01:39:45;1.93;;;1.70;;
68821;SDS011;55834;50.870;4.606;2023-02-18T01:42:20;1.50;;;1.00;;
68821;SDS011;55834;50.870;4.606;2023-02-18T01:44:47;1.35;;;1.10;;
68821;SDS011;55834;50.870;4.606;2023-02-18T01:47:13;2.50;;;0.98;;
68821;SDS011;55834;50.870;4.606;2023-02-18T01:49:39;1.10;;;0.82;;
68821;SDS011;55834;50.870;4.606;2023-02-18T01:52:06;2.78;;;1.10;;
68821;SDS011;55834;50.870;4.606;2023-02-18T01:54:36;1.60;;;0.65;;
68821;SDS011;55834;50.870;4.606;2023-02-18T01:57:06;0.82;;;0.82;;
68821;SDS011;55834;50.870;4.606;2023-02-18T01:59:39;0.82;;;0.82;;
68821;SDS011;55834;50.870;4.606;2023-02-18T02:02:11;1.00;;;0.90;;
68821;SDS011;55834;50.870;4.606;2023-02-18T02:04:39;0.70;;;0.70;;
68821;SDS011;55834;50.870;4.606;2023-02-18T02:07:05;0.38;;;0.38;;
68821;SDS011;55834;50.870;4.606;2023-02-18T02:09:31;0.75;;;0.50;;
68821;SDS011;55834;50.870;4.606;2023-02-18T02:12:05;0.20;;;0.20;;
68821;SDS011;55834;50.870;4.606;2023-02-18T02:14:37;0.32;;;0.28;;
68821;SDS011;55834;50.870;4.606;2023-02-18T02:25:38;1.02;;;0.90;;
68821;SDS011;55834;50.870;4.606;2023-02-18T02:30:42;0.90;;;0.90;;
68821;SDS011;55834;50.870;4.606;2023-02-18T02:33:16;1.00;;;0.95;;
68821;SDS011;55834;50.870;4.606;2023-02-18T02:38:55;1.33;;;1.05;;
68821;SDS011;55834;50.870;4.606;2023-02-18T02:44:20;1.10;;;1.00;;
68821;SDS011;55834;50.870;4.606;2023-02-18T02:46:52;1.15;;;0.75;;
68821;SDS011;55834;50.870;4.606;2023-02-18T02:49:32;1.85;;;0.80;;
68821;SDS011;55834;50.870;4.606;2023-02-18T02:54:29;0.80;;;0.75;;
68821;SDS011;55834;50.870;4.606;2023-02-18T02:57:09;1.45;;;1.35;;
68821;SDS011;55834;50.870;4.606;2023-02-18T02:59:57;1.40;;;1.30;;
68821;SDS011;55834;50.870;4.606;2023-02-18T03:02:48;0.70;;;0.70;;
68821;SDS011;55834;50.870;4.606;2023-02-18T03:08:24;1.38;;;1.27;;
68821;SDS011;55834;50.870;4.606;2023-02-18T03:19:26;1.95;;;0.80;;
68821;SDS011;55834;50.870;4.606;2023-02-18T03:22:16;1.33;;;0.70;;
68821;SDS011;55834;50.870;4.606;2023-02-18T03:24:49;1.25;;;0.80;;
68821;SDS011;55834;50.870;4.606;2023-02-18T03:29:59;3.15;;;1.23;;
68821;SDS011;55834;50.870;4.606;2023-02-18T03:32:28;1.80;;;0.90;;
68821;SDS011;55834;50.870;4.606;2023-02-18T03:34:59;1.50;;;1.40;;
68821;SDS011;55834;50.870;4.606;2023-02-18T03:37:30;1.50;;;1.40;;
68821;SDS011;55834;50.870;4.606;2023-02-18T03:39:59;1.05;;;0.80;;
68821;SDS011;55834;50.870;4.606;2023-02-18T03:42:26;0.80;;;0.80;;
68821;SDS011;55834;50.870;4.606;2023-02-18T03:44:52;0.80;;;0.65;;
68821;SDS011;55834;50.870;4.606;2023-02-18T03:47:17;1.00;;;0.90;;
68821;SDS011;55834;50.870;4.606;2023-02-18T03:49:43;1.02;;;1.00;;
68821;SDS011;55834;50.870;4.606;2023-02-18T03:52:09;1.40;;;1.30;;
68821;SDS011;55834;50.870;4.606;2023-02-18T03:54:35;0.70;;;0.70;;
68821;SDS011;55834;50.870;4.606;2023-02-18T03:57:00;1.25;;;0.88;;
68821;SDS011;55834;50.870;4.606;2023-02-18T03:59:26;1.27;;;1.10;;
68821;SDS011;55834;50.870;4.606;2023-02-18T04:01:51;0.60;;;0.60;;
68821;SDS011;55834;50.870;4.606;2023-02-18T04:04:16;1.93;;;1.10;;
68821;SDS011;55834;50.870;4.606;2023-02-18T04:06:42;0.83;;;0.83;;
68821;SDS011;55834;50.870;4.606;2023-02-18T04:09:07;1.00;;;0.90;;
68821;SDS011;55834;50.870;4.606;2023-02-18T04:11:34;2.25;;;1.27;;
68821;SDS011;55834;50.870;4.606;2023-02-18T04:14:00;2.20;;;1.33;;
68821;SDS011;55834;50.870;4.606;2023-02-18T04:16:26;1.43;;;1.00;;
68821;SDS011;55834;50.870;4.606;2023-02-18T04:18:51;1.30;;;1.20;;
68821;SDS011;55834;50.870;4.606;2023-02-18T04:21:16;1.00;;;0.70;;
68821;SDS011;55834;50.870;4.606;2023-02-18T04:23:42;1.90;;;0.80;;
68821;SDS011;55834;50.870;4.606;2023-02-18T04:26:07;1.30;;;1.20;;
68821;SDS011;55834;50.870;4.606;2023-02-18T04:28:32;0.70;;;0.70;;
68821;SDS011;55834;50.870;4.606;2023-02-18T04:30:57;0.70;;;0.67;;
68821;SDS011;55834;50.870;4.606;2023-02-18T04:33:23;0.73;;;0.60;;
68821;SDS011;55834;50.870;4.606;2023-02-18T04:35:48;1.30;;;1.20;;
68821;SDS011;55834;50.870;4.606;2023-02-18T04:38:13;1.13;;;1.07;;
68821;SDS011;55834;50.870;4.606;2023-02-18T04:40:39;0.88;;;0.70;;
68821;SDS011;55834;50.870;4.606;2023-02-18T04:43:05;1.03;;;0.83;;
68821;SDS011;55834;50.870;4.606;2023-02-18T04:45:30;0.70;;;0.70;;
68821;SDS011;55834;50.870;4.606;2023-02-18T04:47:56;0.88;;;0.88;;
68821;SDS011;55834;50.870;4.606;2023-02-18T04:50:21;0.80;;;0.80;;
68821;SDS011;55834;50.870;4.606;2023-02-18T04:52:47;0.90;;;0.90;;
68821;SDS011;55834;50.870;4.606;2023-02-18T04:55:13;0.75;;;0.75;;
68821;SDS011;55834;50.870;4.606;2023-02-18T04:57:38;0.80;;;0.80;;
68821;SDS011;55834;50.870;4.606;2023-02-18T05:00:04;0.80;;;0.80;;
68821;SDS011;55834;50.870;4.606;2023-02-18T05:02:31;1.35;;;0.52;;
68821;SDS011;55834;50.870;4.606;2023-02-18T05:04:57;1.77;;;0.75;;
68821;SDS011;55834;50.870;4.606;2023-02-18T05:07:22;1.20;;;0.80;;
68821;SDS011;55834;50.870;4.606;2023-02-18T05:09:47;0.60;;;0.60;;
68821;SDS011;55834;50.870;4.606;2023-02-18T05:12:14;0.98;;;0.43;;
68821;SDS011;55834;50.870;4.606;2023-02-18T05:14:40;0.93;;;0.77;;
68821;SDS011;55834;50.870;4.606;2023-02-18T05:17:05;0.47;;;0.37;;
68821;SDS011;55834;50.870;4.606;2023-02-18T05:19:30;1.10;;;0.57;;
68821;SDS011;55834;50.870;4.606;2023-02-18T05:21:56;0.90;;;0.90;;
68821;SDS011;55834;50.870;4.606;2023-02-18T05:24:21;1.10;;;1.02;;
68821;SDS011;55834;50.870;4.606;2023-02-18T05:26:47;0.70;;;0.70;;
68821;SDS011;55834;50.870;4.606;2023-02-18T05:29:12;0.80;;;0.80;;
68821;SDS011;55834;50.870;4.606;2023-02-18T05:31:37;0.90;;;0.90;;
68821;SDS011;55834;50.870;4.606;2023-02-18T05:34:03;0.50;;;0.50;;
68821;SDS011;55834;50.870;4.606;2023-02-18T05:36:28;0.52;;;0.52;;
68821;SDS011;55834;50.870;4.606;2023-02-18T05:38:55;1.10;;;1.02;;
68821;SDS011;55834;50.870;4.606;2023-02-18T05:41:20;0.88;;;0.52;;
68821;SDS011;55834;50.870;4.606;2023-02-18T05:43:46;1.52;;;0.60;;
68821;SDS011;55834;50.870;4.606;2023-02-18T05:46:30;1.42;;;1.15;;
68821;SDS011;55834;50.870;4.606;2023-02-18T05:48:55;0.82;;;0.82;;
68821;SDS011;55834;50.870;4.606;2023-02-18T05:51:20;0.77;;;0.53;;
68821;SDS011;55834;50.870;4.606;2023-02-18T05:53:46;2.17;;;0.80;;
68821;SDS011;55834;50.870;4.606;2023-02-18T05:56:11;2.47;;;1.17;;
68821;SDS011;55834;50.870;4.606;2023-02-18T05:58:36;3.53;;;1.53;;
68821;SDS011;55834;50.870;4.606;2023-02-18T06:01:02;1.80;;;0.90;;
68821;SDS011;55834;50.870;4.606;2023-02-18T06:03:28;1.60;;;0.80;;
68821;SDS011;55834;50.870;4.606;2023-02-18T06:05:53;2.20;;;0.80;;
68821;SDS011;55834;50.870;4.606;2023-02-18T06:08:18;2.20;;;1.00;;
68821;SDS011;55834;50.870;4.606;2023-02-18T06:10:46;2.83;;;1.17;;
68821;SDS011;55834;50.870;4.606;2023-02-18T06:13:12;4.68;;;1.50;;
68821;SDS011;55834;50.870;4.606;2023-02-18T06:15:38;4.70;;;1.85;;
68821;SDS011;55834;50.870;4.606;2023-02-18T06:18:04;3.05;;;1.48;;
68821;SDS011;55834;50.870;4.606;2023-02-18T06:20:30;4.43;;;1.17;;
68821;SDS011;55834;50.870;4.606;2023-02-18T06:22:56;1.55;;;0.90;;
68821;SDS011;55834;50.870;4.606;2023-02-18T06:25:21;3.30;;;1.27;;
68821;SDS011;55834;50.870;4.606;2023-02-18T06:27:46;6.20;;;1.17;;
68821;SDS011;55834;50.870;4.606;2023-02-18T06:30:12;5.43;;;1.10;;
68821;SDS011;55834;50.870;4.606;2023-02-18T06:32:37;3.30;;;1.60;;
68821;SDS011;55834;50.870;4.606;2023-02-18T06:35:02;3.73;;;1.40;;
68821;SDS011;55834;50.870;4.606;2023-02-18T06:37:29;3.42;;;1.10;;
68821;SDS011;55834;50.870;4.606;2023-02-18T06:39:54;9.13;;;1.93;;
68821;SDS011;55834;50.870;4.606;2023-02-18T06:42:20;5.38;;;1.23;;
68821;SDS011;55834;50.870;4.606;2023-02-18T06:44:45;9.33;;;1.73;;
68821;SDS011;55834;50.870;4.606;2023-02-18T06:49:49;14.93;;;2.53;;
68821;SDS011;55834;50.870;4.606;2023-02-18T06:52:14;3.05;;;0.80;;
68821;SDS011;55834;50.870;4.606;2023-02-18T06:54:40;3.77;;;1.10;;
68821;SDS011;55834;50.870;4.606;2023-02-18T06:57:05;5.33;;;1.20;;
68821;SDS011;55834;50.870;4.606;2023-02-18T06:59:31;9.02;;;1.67;;
68821;SDS011;55834;50.870;4.606;2023-02-18T07:01:57;5.30;;;0.90;;
68821;SDS011;55834;50.870;4.606;2023-02-18T07:04:22;5.10;;;1.30;;
68821;SDS011;55834;50.870;4.606;2023-02-18T07:06:47;7.57;;;1.37;;
68821;SDS011;55834;50.870;4.606;2023-02-18T07:09:13;9.07;;;1.37;;
68821;SDS011;55834;50.870;4.606;2023-02-18T07:11:38;7.63;;;1.37;;
68821;SDS011;55834;50.870;4.606;2023-02-18T07:14:03;4.23;;;0.90;;
68821;SDS011;55834;50.870;4.606;2023-02-18T07:16:29;9.93;;;1.93;;
68821;SDS011;55834;50.870;4.606;2023-02-18T07:18:54;3.20;;;1.33;;
68821;SDS011;55834;50.870;4.606;2023-02-18T07:21:19;7.45;;;1.33;;
68821;SDS011;55834;50.870;4.606;2023-02-18T07:23:45;5.17;;;2.43;;
68821;SDS011;55834;50.870;4.606;2023-02-18T07:26:11;9.07;;;1.67;;
68821;SDS011;55834;50.870;4.606;2023-02-18T07:28:38;4.75;;;1.88;;
68821;SDS011;55834;50.870;4.606;2023-02-18T07:31:04;7.22;;;1.60;;
68821;SDS011;55834;50.870;4.606;2023-02-18T07:33:29;6.78;;;2.30;;
68821;SDS011;55834;50.870;4.606;2023-02-18T07:35:56;4.80;;;1.50;;
68821;SDS011;55834;50.870;4.606;2023-02-18T07:38:23;8.30;;;1.77;;
68821;SDS011;55834;50.870;4.606;2023-02-18T07:43:16;10.35;;;1.95;;
68821;SDS011;55834;50.870;4.606;2023-02-18T07:45:42;6.60;;;1.38;;
68821;SDS011;55834;50.870;4.606;2023-02-18T07:48:08;6.18;;;1.33;;
68821;SDS011;55834;50.870;4.606;2023-02-18T07:50:34;5.70;;;1.40;;
68821;SDS011;55834;50.870;4.606;2023-02-18T07:53:01;5.13;;;1.30;;
68821;SDS011;55834;50.870;4.606;2023-02-18T07:55:27;7.00;;;1.02;;
68821;SDS011;55834;50.870;4.606;2023-02-18T07:58:12;7.60;;;1.02;;
68821;SDS011;55834;50.870;4.606;2023-02-18T08:00:49;7.10;;;1.40;;
68821;SDS011;55834;50.870;4.606;2023-02-18T08:03:16;7.90;;;1.83;;
68821;SDS011;55834;50.870;4.606;2023-02-18T08:05:42;6.82;;;1.52;;
68821;SDS011;55834;50.870;4.606;2023-02-18T08:08:18;5.75;;;1.58;;
68821;SDS011;55834;50.870;4.606;2023-02-18T08:10:46;7.00;;;2.33;;
68821;SDS011;55834;50.870;4.606;2023-02-18T08:13:12;4.63;;;1.60;;
68821;SDS011;55834;50.870;4.606;2023-02-18T08:15:38;7.18;;;1.40;;
68821;SDS011;55834;50.870;4.606;2023-02-18T08:18:04;8.05;;;2.25;;
68821;SDS011;55834;50.870;4.606;2023-02-18T08:20:34;4.28;;;1.33;;
68821;SDS011;55834;50.870;4.606;2023-02-18T08:23:01;7.63;;;1.75;;
68821;SDS011;55834;50.870;4.606;2023-02-18T08:25:26;4.00;;;1.55;;
68821;SDS011;55834;50.870;4.606;2023-02-18T08:27:52;8.18;;;1.05;;
68821;SDS011;55834;50.870;4.606;2023-02-18T08:30:17;6.15;;;1.58;;
68821;SDS011;55834;50.870;4.606;2023-02-18T08:32:43;8.60;;;1.23;;
68821;SDS011;55834;50.870;4.606;2023-02-18T08:35:09;3.47;;;1.60;;
68821;SDS011;55834;50.870;4.606;2023-02-18T08:37:35;6.15;;;2.03;;
68821;SDS011;55834;50.870;4.606;2023-02-18T08:40:00;6.73;;;1.10;;
68821;SDS011;55834;50.870;4.606;2023-02-18T08:42:26;4.00;;;1.30;;
68821;SDS011;55834;50.870;4.606;2023-02-18T08:44:51;3.47;;;1.07;;
68821;SDS011;55834;50.870;4.606;2023-02-18T08:47:17;6.00;;;1.15;;
68821;SDS011;55834;50.870;4.606;2023-02-18T08:49:43;4.37;;;0.80;;
68821;SDS011;55834;50.870;4.606;2023-02-18T08:52:08;4.15;;;1.48;;
68821;SDS011;55834;50.870;4.606;2023-02-18T08:54:33;6.85;;;1.33;;
68821;SDS011;55834;50.870;4.606;2023-02-18T08:56:59;4.07;;;1.33;;
68821;SDS011;55834;50.870;4.606;2023-02-18T08:59:24;6.53;;;1.13;;
68821;SDS011;55834;50.870;4.606;2023-02-18T09:01:51;3.53;;;2.15;;
68821;SDS011;55834;50.870;4.606;2023-02-18T09:04:16;5.15;;;1.00;;
68821;SDS011;55834;50.870;4.606;2023-02-18T09:06:42;4.27;;;1.13;;
68821;SDS011;55834;50.870;4.606;2023-02-18T09:09:07;3.30;;;0.95;;
68821;SDS011;55834;50.870;4.606;2023-02-18T09:11:34;3.33;;;0.73;;
68821;SDS011;55834;50.870;4.606;2023-02-18T09:13:59;3.72;;;0.60;;
68821;SDS011;55834;50.870;4.606;2023-02-18T09:16:25;5.47;;;1.30;;
68821;SDS011;55834;50.870;4.606;2023-02-18T09:18:52;1.67;;;0.88;;
68821;SDS011;55834;50.870;4.606;2023-02-18T09:21:18;4.90;;;1.23;;
68821;SDS011;55834;50.870;4.606;2023-02-18T09:23:45;4.47;;;0.98;;
68821;SDS011;55834;50.870;4.606;2023-02-18T09:26:11;3.55;;;1.10;;
68821;SDS011;55834;50.870;4.606;2023-02-18T09:28:38;3.72;;;1.08;;
68821;SDS011;55834;50.870;4.606;2023-02-18T09:31:06;6.72;;;0.88;;
68821;SDS011;55834;50.870;4.606;2023-02-18T09:33:41;4.80;;;0.80;;
68821;SDS011;55834;50.870;4.606;2023-02-18T09:36:09;4.20;;;0.77;;
68821;SDS011;55834;50.870;4.606;2023-02-18T09:38:34;1.90;;;0.50;;
68821;SDS011;55834;50.870;4.606;2023-02-18T09:41:00;6.30;;;1.25;;
68821;SDS011;55834;50.870;4.606;2023-02-18T09:43:33;2.38;;;0.75;;
68821;SDS011;55834;50.870;4.606;2023-02-18T09:46:18;4.10;;;0.85;;
68821;SDS011;55834;50.870;4.606;2023-02-18T09:48:47;3.97;;;0.93;;
68821;SDS011;55834;50.870;4.606;2023-02-18T09:51:13;6.75;;;1.17;;
68821;SDS011;55834;50.870;4.606;2023-02-18T09:53:40;2.50;;;0.95;;
68821;SDS011;55834;50.870;4.606;2023-02-18T09:56:09;4.25;;;1.30;;
68821;SDS011;55834;50.870;4.606;2023-02-18T09:58:40;5.57;;;1.23;;
68821;SDS011;55834;50.870;4.606;2023-02-18T10:01:10;9.32;;;1.95;;
68821;SDS011;55834;50.870;4.606;2023-02-18T10:03:39;5.57;;;1.83;;
68821;SDS011;55834;50.870;4.606;2023-02-18T10:06:17;8.55;;;1.50;;
68821;SDS011;55834;50.870;4.606;2023-02-18T10:08:53;8.73;;;2.25;;
68821;SDS011;55834;50.870;4.606;2023-02-18T10:11:30;4.30;;;1.42;;
68821;SDS011;55834;50.870;4.606;2023-02-18T10:13:59;2.60;;;0.90;;
68821;SDS011;55834;50.870;4.606;2023-02-18T10:16:27;4.43;;;1.30;;
68821;SDS011;55834;50.870;4.606;2023-02-18T10:18:53;2.22;;;1.67;;
68821;SDS011;55834;50.870;4.606;2023-02-18T10:21:23;9.50;;;1.38;;
68821;SDS011;55834;50.870;4.606;2023-02-18T10:26:33;4.38;;;1.27;;
68821;SDS011;55834;50.870;4.606;2023-02-18T10:29:01;2.85;;;1.13;;
68821;SDS011;55834;50.870;4.606;2023-02-18T10:33:58;2.10;;;1.30;;
68821;SDS011;55834;50.870;4.606;2023-02-18T10:36:35;7.25;;;1.13;;
68821;SDS011;55834;50.870;4.606;2023-02-18T10:42:21;4.72;;;1.25;;
68821;SDS011;55834;50.870;4.606;2023-02-18T10:45:02;2.15;;;1.15;;
68821;SDS011;55834;50.870;4.606;2023-02-18T10:47:42;6.22;;;1.52;;
68821;SDS011;55834;50.870;4.606;2023-02-18T10:53:24;2.90;;;1.10;;
68821;SDS011;55834;50.870;4.606;2023-02-18T10:56:00;5.75;;;1.55;;
68821;SDS011;55834;50.870;4.606;2023-02-18T10:58:35;4.78;;;1.83;;
68821;SDS011;55834;50.870;4.606;2023-02-18T11:01:12;5.75;;;2.22;;
68821;SDS011;55834;50.870;4.606;2023-02-18T11:03:43;6.00;;;2.20;;
68821;SDS011;55834;50.870;4.606;2023-02-18T11:08:54;7.20;;;2.20;;
68821;SDS011;55834;50.870;4.606;2023-02-18T11:11:27;6.00;;;1.63;;
68821;SDS011;55834;50.870;4.606;2023-02-18T11:13:57;5.25;;;2.10;;
68821;SDS011;55834;50.870;4.606;2023-02-18T11:19:04;3.70;;;1.70;;
68821;SDS011;55834;50.870;4.606;2023-02-18T11:21:31;4.65;;;1.65;;
68821;SDS011;55834;50.870;4.606;2023-02-18T11:24:07;4.07;;;1.98;;
68821;SDS011;55834;50.870;4.606;2023-02-18T11:26:39;2.47;;;0.82;;
68821;SDS011;55834;50.870;4.606;2023-02-18T11:29:06;13.02;;;2.10;;
68821;SDS011;55834;50.870;4.606;2023-02-18T11:31:41;2.00;;;1.38;;
68821;SDS011;55834;50.870;4.606;2023-02-18T11:36:43;3.90;;;1.80;;
68821;SDS011;55834;50.870;4.606;2023-02-18T11:41:46;4.55;;;1.55;;
68821;SDS011;55834;50.870;4.606;2023-02-18T11:44:22;5.47;;;1.20;;
68821;SDS011;55834;50.870;4.606;2023-02-18T11:49:22;7.40;;;1.65;;
68821;SDS011;55834;50.870;4.606;2023-02-18T11:51:48;5.60;;;1.40;;
68821;SDS011;55834;50.870;4.606;2023-02-18T11:54:27;6.22;;;2.20;;
68821;SDS011;55834;50.870;4.606;2023-02-18T11:56:56;9.82;;;1.70;;
68821;SDS011;55834;50.870;4.606;2023-02-18T11:59:33;6.15;;;1.42;;
68821;SDS011;55834;50.870;4.606;2023-02-18T12:04:49;6.88;;;1.58;;
68821;SDS011;55834;50.870;4.606;2023-02-18T12:07:24;7.82;;;1.70;;
68821;SDS011;55834;50.870;4.606;2023-02-18T12:10:00;8.45;;;2.67;;
68821;SDS011;55834;50.870;4.606;2023-02-18T12:18:20;3.43;;;1.00;;
68821;SDS011;55834;50.870;4.606;2023-02-18T12:29:59;6.03;;;1.33;;
68821;SDS011;55834;50.870;4.606;2023-02-18T12:35:35;5.07;;;1.45;;
68821;SDS011;55834;50.870;4.606;2023-02-18T12:40:51;3.90;;;1.95;;
68821;SDS011;55834;50.870;4.606;2023-02-18T12:43:25;4.90;;;1.50;;
68821;SDS011;55834;50.870;4.606;2023-02-18T12:51:34;5.05;;;0.95;;
68821;SDS011;55834;50.870;4.606;2023-02-18T13:10:50;3.22;;;1.83;;
68821;SDS011;55834;50.870;4.606;2023-02-18T13:13:23;10.25;;;2.10;;
68821;SDS011;55834;50.870;4.606;2023-02-18T13:15:59;3.80;;;1.23;;
68821;SDS011;55834;50.870;4.606;2023-02-18T13:18:48;8.25;;;2.28;;
68821;SDS011;55834;50.870;4.606;2023-02-18T13:21:22;6.60;;;2.38;;
68821;SDS011;55834;50.870;4.606;2023-02-18T13:23:52;3.75;;;1.45;;
68821;SDS011;55834;50.870;4.606;2023-02-18T13:40:55;6.97;;;1.77;;
68821;SDS011;55834;50.870;4.606;2023-02-18T13:51:30;7.20;;;1.40;;
68821;SDS011;55834;50.870;4.606;2023-02-18T13:54:17;6.47;;;2.08;;
68821;SDS011;55834;50.870;4.606;2023-02-18T13:59:40;3.70;;;1.23;;
68821;SDS011;55834;50.870;4.606;2023-02-18T14:09:43;7.38;;;1.75;;
68821;SDS011;55834;50.870;4.606;2023-02-18T14:15:00;8.20;;;1.98;;
68821;SDS011;55834;50.870;4.606;2023-02-18T14:17:29;3.13;;;1.50;;
68821;SDS011;55834;50.870;4.606;2023-02-18T14:22:43;4.43;;;1.77;;
68821;SDS011;55834;50.870;4.606;2023-02-18T14:27:39;10.50;;;1.87;;
68821;SDS011;55834;50.870;4.606;2023-02-18T14:30:05;3.90;;;1.73;;
68821;SDS011;55834;50.870;4.606;2023-02-18T14:32:40;4.18;;;1.80;;
68821;SDS011;55834;50.870;4.606;2023-02-18T14:37:59;2.15;;;1.10;;
68821;SDS011;55834;50.870;4.606;2023-02-18T14:40:48;6.25;;;1.23;;
68821;SDS011;55834;50.870;4.606;2023-02-18T14:43:24;4.57;;;1.23;;
68821;SDS011;55834;50.870;4.606;2023-02-18T14:46:04;5.85;;;1.73;;
68821;SDS011;55834;50.870;4.606;2023-02-18T14:51:42;4.28;;;1.05;;
68821;SDS011;55834;50.870;4.606;2023-02-18T14:54:12;6.43;;;1.98;;
68821;SDS011;55834;50.870;4.606;2023-02-18T14:59:30;1.73;;;1.30;;
68821;SDS011;55834;50.870;4.606;2023-02-18T15:02:00;2.72;;;1.33;;
68821;SDS011;55834;50.870;4.606;2023-02-18T15:04:25;5.22;;;1.92;;
68821;SDS011;55834;50.870;4.606;2023-02-18T15:07:02;4.88;;;1.92;;
68821;SDS011;55834;50.870;4.606;2023-02-18T15:09:29;3.30;;;1.52;;
68821;SDS011;55834;50.870;4.606;2023-02-18T15:12:04;2.33;;;1.90;;
68821;SDS011;55834;50.870;4.606;2023-02-18T15:14:41;8.77;;;2.17;;
68821;SDS011;55834;50.870;4.606;2023-02-18T15:17:16;4.90;;;1.33;;
68821;SDS011;55834;50.870;4.606;2023-02-18T15:20:17;3.60;;;1.73;;
68821;SDS011;55834;50.870;4.606;2023-02-18T15:22:36;5.07;;;2.08;;
68821;SDS011;55834;50.870;4.606;2023-02-18T15:25:03;3.28;;;1.50;;
68821;SDS011;55834;50.870;4.606;2023-02-18T15:27:33;5.35;;;2.10;;
68821;SDS011;55834;50.870;4.606;2023-02-18T15:30:23;2.42;;;1.38;;
68821;SDS011;55834;50.870;4.606;2023-02-18T15:32:55;5.35;;;2.42;;
68821;SDS011;55834;50.870;4.606;2023-02-18T15:35:26;4.40;;;1.20;;
68821;SDS011;55834;50.870;4.606;2023-02-18T15:37:57;4.75;;;1.65;;
68821;SDS011;55834;50.870;4.606;2023-02-18T15:40:26;3.00;;;1.65;;
68821;SDS011;55834;50.870;4.606;2023-02-18T15:42:55;8.07;;;1.88;;
68821;SDS011;55834;50.870;4.606;2023-02-18T15:48:05;2.92;;;1.15;;
68821;SDS011;55834;50.870;4.606;2023-02-18T15:50:35;4.28;;;2.22;;
68821;SDS011;55834;50.870;4.606;2023-02-18T15:53:15;7.18;;;2.00;;
68821;SDS011;55834;50.870;4.606;2023-02-18T15:58:11;4.20;;;1.40;;
68821;SDS011;55834;50.870;4.606;2023-02-18T16:00:51;4.35;;;2.35;;
68821;SDS011;55834;50.870;4.606;2023-02-18T16:05:49;4.22;;;1.35;;
68821;SDS011;55834;50.870;4.606;2023-02-18T16:08:25;8.43;;;2.28;;
68821;SDS011;55834;50.870;4.606;2023-02-18T16:11:02;2.28;;;1.90;;
68821;SDS011;55834;50.870;4.606;2023-02-18T16:13:30;4.75;;;1.88;;
68821;SDS011;55834;50.870;4.606;2023-02-18T16:15:57;4.07;;;2.22;;
68821;SDS011;55834;50.870;4.606;2023-02-18T16:20:56;12.15;;;2.65;;
68821;SDS011;55834;50.870;4.606;2023-02-18T16:23:28;5.03;;;1.70;;
68821;SDS011;55834;50.870;4.606;2023-02-18T16:25:58;2.97;;;1.55;;
68821;SDS011;55834;50.870;4.606;2023-02-18T16:28:34;8.38;;;2.72;;
68821;SDS011;55834;50.870;4.606;2023-02-18T16:30:59;4.23;;;1.83;;
68821;SDS011;55834;50.870;4.606;2023-02-18T16:33:24;5.27;;;1.30;;
68821;SDS011;55834;50.870;4.606;2023-02-18T16:35:50;4.73;;;2.17;;
68821;SDS011;55834;50.870;4.606;2023-02-18T16:38:16;4.73;;;2.00;;
68821;SDS011;55834;50.870;4.606;2023-02-18T16:40:43;3.97;;;1.70;;
68821;SDS011;55834;50.870;4.606;2023-02-18T16:43:12;3.47;;;1.40;;
68821;SDS011;55834;50.870;4.606;2023-02-18T16:48:14;2.20;;;1.20;;
68821;SDS011;55834;50.870;4.606;2023-02-18T16:51:04;2.20;;;1.60;;
68821;SDS011;55834;50.870;4.606;2023-02-18T16:53:33;3.50;;;1.70;;
68821;SDS011;55834;50.870;4.606;2023-02-18T16:55:58;4.83;;;1.80;;
68821;SDS011;55834;50.870;4.606;2023-02-18T16:58:25;2.85;;;1.58;;
68821;SDS011;55834;50.870;4.606;2023-02-18T17:00:51;4.20;;;1.95;;
68821;SDS011;55834;50.870;4.606;2023-02-18T17:03:16;3.97;;;1.98;;
68821;SDS011;55834;50.870;4.606;2023-02-18T17:05:42;5.20;;;1.27;;
68821;SDS011;55834;50.870;4.606;2023-02-18T17:08:21;3.20;;;2.10;;
68821;SDS011;55834;50.870;4.606;2023-02-18T17:10:49;2.83;;;1.52;;
68821;SDS011;55834;50.870;4.606;2023-02-18T17:13:19;4.18;;;1.70;;
68821;SDS011;55834;50.870;4.606;2023-02-18T17:15:50;2.75;;;2.00;;
68821;SDS011;55834;50.870;4.606;2023-02-18T17:18:19;3.22;;;1.52;;
68821;SDS011;55834;50.870;4.606;2023-02-18T17:20:45;9.43;;;2.80;;
68821;SDS011;55834;50.870;4.606;2023-02-18T17:23:13;4.88;;;2.35;;
68821;SDS011;55834;50.870;4.606;2023-02-18T17:25:39;5.75;;;1.35;;
68821;SDS011;55834;50.870;4.606;2023-02-18T17:28:05;3.22;;;2.10;;
68821;SDS011;55834;50.870;4.606;2023-02-18T17:30:31;4.38;;;2.50;;
68821;SDS011;55834;50.870;4.606;2023-02-18T17:33:00;4.43;;;2.20;;
68821;SDS011;55834;50.870;4.606;2023-02-18T17:35:27;8.73;;;2.80;;
68821;SDS011;55834;50.870;4.606;2023-02-18T17:37:52;7.43;;;3.40;;
68821;SDS011;55834;50.870;4.606;2023-02-18T17:40:19;4.88;;;2.65;;
68821;SDS011;55834;50.870;4.606;2023-02-18T17:42:46;3.25;;;2.80;;
68821;SDS011;55834;50.870;4.606;2023-02-18T17:48:00;3.13;;;1.75;;
68821;SDS011;55834;50.870;4.606;2023-02-18T17:50:27;4.40;;;2.70;;
68821;SDS011;55834;50.870;4.606;2023-02-18T17:57:55;2.60;;;2.40;;
68821;SDS011;55834;50.870;4.606;2023-02-18T18:00:25;5.25;;;1.95;;
68821;SDS011;55834;50.870;4.606;2023-02-18T18:02:51;5.45;;;2.13;;